sensor_id;sensor_type;location;lat;lon;timestamp;P1;durP1;ratioP1;P2;durP2;ratioP2
22070;SDS011;11200;51.488;6.668;2023-06-22T00:00:52;5.95;;;2.90;;
22070;SDS011;11200;51.488;6.668;2023-06-22T00:03:19;4.32;;;3.22;;
22070;SDS011;11200;51.488;6.668;2023-06-22T00:05:46;4.47;;;2.60;;
22070;SDS011;11200;51.488;6.668;2023-06-22T00:08:12;4.18;;;2.70;;
22070;SDS011;11200;51.488;6.668;2023-06-22T00:10:38;4.88;;;3.05;;
22070;SDS011;11200;51.488;6.668;2023-06-22T00:13:04;4.13;;;2.67;;
22070;SDS011;11200;51.488;6.668;2023-06-22T00:15:30;3.83;;;2.92;;
22070;SDS011;11200;51.488;6.668;2023-06-22T00:17:56;3.15;;;2.65;;
22070;SDS011;11200;51.488;6.668;2023-06-22T00:20:22;3.75;;;2.70;;
22070;SDS011;11200;51.488;6.668;2023-06-22T00:22:52;3.20;;;2.80;;
22070;SDS011;11200;51.488;6.668;2023-06-22T00:25:18;3.83;;;2.90;;
22070;SDS011;11200;51.488;6.668;2023-06-22T00:27:44;4.65;;;3.40;;
22070;SDS011;11200;51.488;6.668;2023-06-22T00:30:10;3.78;;;3.20;;
22070;SDS011;11200;51.488;6.668;2023-06-22T00:32:36;3.80;;;3.08;;
22070;SDS011;11200;51.488;6.668;2023-06-22T00:35:01;3.22;;;2.58;;
22070;SDS011;11200;51.488;6.668;2023-06-22T00:37:27;4.50;;;2.60;;
22070;SDS011;11200;51.488;6.668;2023-06-22T00:39:54;3.58;;;3.15;;
22070;SDS011;11200;51.488;6.668;2023-06-22T00:42:20;3.75;;;2.63;;
22070;SDS011;11200;51.488;6.668;2023-06-22T00:44:46;3.72;;;3.05;;
22070;SDS011;11200;51.488;6.668;2023-06-22T00:47:12;3.75;;;2.55;;
22070;SDS011;11200;51.488;6.668;2023-06-22T00:49:40;3.40;;;2.80;;
22070;SDS011;11200;51.488;6.668;2023-06-22T00:52:06;4.82;;;3.00;;
22070;SDS011;11200;51.488;6.668;2023-06-22T00:54:42;2.92;;;2.63;;
22070;SDS011;11200;51.488;6.668;2023-06-22T00:57:11;3.63;;;2.80;;
22070;SDS011;11200;51.488;6.668;2023-06-22T00:59:41;3.20;;;2.60;;
22070;SDS011;11200;51.488;6.668;2023-06-22T01:02:08;4.05;;;2.95;;
22070;SDS011;11200;51.488;6.668;2023-06-22T01:04:35;3.72;;;2.88;;
22070;SDS011;11200;51.488;6.668;2023-06-22T01:09:35;3.80;;;3.08;;
22070;SDS011;11200;51.488;6.668;2023-06-22T01:12:19;3.75;;;3.25;;
22070;SDS011;11200;51.488;6.668;2023-06-22T01:14:56;3.17;;;2.65;;
22070;SDS011;11200;51.488;6.668;2023-06-22T01:17:30;3.50;;;3.17;;
22070;SDS011;11200;51.488;6.668;2023-06-22T01:19:57;4.82;;;3.17;;
22070;SDS011;11200;51.488;6.668;2023-06-22T01:22:25;3.50;;;2.95;;
22070;SDS011;11200;51.488;6.668;2023-06-22T01:25:09;3.20;;;2.90;;
22070;SDS011;11200;51.488;6.668;2023-06-22T01:30:26;3.20;;;2.88;;
22070;SDS011;11200;51.488;6.668;2023-06-22T01:32:54;3.78;;;2.88;;
22070;SDS011;11200;51.488;6.668;2023-06-22T01:35:21;3.45;;;3.03;;
22070;SDS011;11200;51.488;6.668;2023-06-22T01:37:48;3.17;;;2.72;;
22070;SDS011;11200;51.488;6.668;2023-06-22T01:40:14;4.53;;;2.97;;
22070;SDS011;11200;51.488;6.668;2023-06-22T01:42:41;3.20;;;2.70;;
22070;SDS011;11200;51.488;6.668;2023-06-22T01:45:08;3.50;;;3.10;;
22070;SDS011;11200;51.488;6.668;2023-06-22T01:47:36;3.95;;;2.97;;
22070;SDS011;11200;51.488;6.668;2023-06-22T01:50:02;3.63;;;3.22;;
22070;SDS011;11200;51.488;6.668;2023-06-22T01:52:28;3.33;;;3.00;;
22070;SDS011;11200;51.488;6.668;2023-06-22T01:54:54;3.28;;;2.97;;
22070;SDS011;11200;51.488;6.668;2023-06-22T01:57:19;3.65;;;2.97;;
22070;SDS011;11200;51.488;6.668;2023-06-22T02:00:04;3.50;;;3.20;;
22070;SDS011;11200;51.488;6.668;2023-06-22T02:02:48;4.30;;;2.72;;
22070;SDS011;11200;51.488;6.668;2023-06-22T02:05:24;3.75;;;2.92;;
22070;SDS011;11200;51.488;6.668;2023-06-22T02:10:34;3.50;;;3.00;;
22070;SDS011;11200;51.488;6.668;2023-06-22T02:13:03;4.68;;;3.45;;
22070;SDS011;11200;51.488;6.668;2023-06-22T02:15:31;4.18;;;3.33;;
22070;SDS011;11200;51.488;6.668;2023-06-22T02:17:57;4.07;;;3.40;;
22070;SDS011;11200;51.488;6.668;2023-06-22T02:20:23;3.42;;;3.00;;
22070;SDS011;11200;51.488;6.668;2023-06-22T02:22:49;4.13;;;3.10;;
22070;SDS011;11200;51.488;6.668;2023-06-22T02:25:15;3.47;;;3.17;;
22070;SDS011;11200;51.488;6.668;2023-06-22T02:27:40;3.90;;;3.42;;
22070;SDS011;11200;51.488;6.668;2023-06-22T02:30:09;3.42;;;3.13;;
22070;SDS011;11200;51.488;6.668;2023-06-22T02:32:35;4.15;;;3.20;;
22070;SDS011;11200;51.488;6.668;2023-06-22T02:35:00;3.72;;;3.28;;
22070;SDS011;11200;51.488;6.668;2023-06-22T02:37:29;3.65;;;3.25;;
22070;SDS011;11200;51.488;6.668;2023-06-22T02:39:56;3.50;;;3.20;;
22070;SDS011;11200;51.488;6.668;2023-06-22T02:42:21;4.60;;;3.05;;
22070;SDS011;11200;51.488;6.668;2023-06-22T02:44:47;3.20;;;2.90;;
22070;SDS011;11200;51.488;6.668;2023-06-22T02:47:13;3.72;;;3.17;;
22070;SDS011;11200;51.488;6.668;2023-06-22T02:49:39;4.57;;;2.97;;
22070;SDS011;11200;51.488;6.668;2023-06-22T02:52:04;3.80;;;3.40;;
22070;SDS011;11200;51.488;6.668;2023-06-22T02:54:30;4.68;;;3.60;;
22070;SDS011;11200;51.488;6.668;2023-06-22T02:56:56;4.13;;;3.30;;
22070;SDS011;11200;51.488;6.668;2023-06-22T02:59:21;3.50;;;3.10;;
22070;SDS011;11200;51.488;6.668;2023-06-22T03:01:49;3.55;;;3.25;;
22070;SDS011;11200;51.488;6.668;2023-06-22T03:04:15;3.50;;;3.20;;
22070;SDS011;11200;51.488;6.668;2023-06-22T03:06:40;4.68;;;3.53;;
22070;SDS011;11200;51.488;6.668;2023-06-22T03:09:06;3.38;;;3.03;;
22070;SDS011;11200;51.488;6.668;2023-06-22T03:11:33;4.53;;;3.80;;
22070;SDS011;11200;51.488;6.668;2023-06-22T03:13:59;4.00;;;3.60;;
22070;SDS011;11200;51.488;6.668;2023-06-22T03:16:25;4.28;;;3.50;;
22070;SDS011;11200;51.488;6.668;2023-06-22T03:18:51;3.70;;;3.30;;
22070;SDS011;11200;51.488;6.668;2023-06-22T03:21:18;3.90;;;3.40;;
22070;SDS011;11200;51.488;6.668;2023-06-22T03:23:44;4.55;;;3.33;;
22070;SDS011;11200;51.488;6.668;2023-06-22T03:26:10;4.95;;;3.70;;
22070;SDS011;11200;51.488;6.668;2023-06-22T03:28:37;3.88;;;3.03;;
22070;SDS011;11200;51.488;6.668;2023-06-22T03:31:03;3.67;;;3.38;;
22070;SDS011;11200;51.488;6.668;2023-06-22T03:33:31;5.18;;;3.80;;
22070;SDS011;11200;51.488;6.668;2023-06-22T03:35:57;3.67;;;3.38;;
22070;SDS011;11200;51.488;6.668;2023-06-22T03:38:22;3.80;;;3.50;;
22070;SDS011;11200;51.488;6.668;2023-06-22T03:40:48;3.50;;;3.20;;
22070;SDS011;11200;51.488;6.668;2023-06-22T03:43:13;3.85;;;3.40;;
22070;SDS011;11200;51.488;6.668;2023-06-22T03:45:39;3.80;;;3.40;;
22070;SDS011;11200;51.488;6.668;2023-06-22T03:48:05;3.92;;;3.30;;
22070;SDS011;11200;51.488;6.668;2023-06-22T03:50:31;3.50;;;3.20;;
22070;SDS011;11200;51.488;6.668;2023-06-22T03:52:56;4.40;;;3.38;;
22070;SDS011;11200;51.488;6.668;2023-06-22T03:55:22;3.42;;;3.13;;
22070;SDS011;11200;51.488;6.668;2023-06-22T03:57:47;3.90;;;3.20;;
22070;SDS011;11200;51.488;6.668;2023-06-22T04:00:13;3.97;;;3.58;;
22070;SDS011;11200;51.488;6.668;2023-06-22T04:02:41;4.38;;;3.67;;
22070;SDS011;11200;51.488;6.668;2023-06-22T04:05:08;3.60;;;3.30;;
22070;SDS011;11200;51.488;6.668;2023-06-22T04:07:34;4.20;;;3.50;;
22070;SDS011;11200;51.488;6.668;2023-06-22T04:10:02;4.22;;;3.38;;
22070;SDS011;11200;51.488;6.668;2023-06-22T04:12:28;3.50;;;3.20;;
22070;SDS011;11200;51.488;6.668;2023-06-22T04:14:54;3.75;;;3.28;;
22070;SDS011;11200;51.488;6.668;2023-06-22T04:17:19;4.68;;;3.67;;
22070;SDS011;11200;51.488;6.668;2023-06-22T04:19:45;3.83;;;3.50;;
22070;SDS011;11200;51.488;6.668;2023-06-22T04:22:10;3.47;;;3.17;;
22070;SDS011;11200;51.488;6.668;2023-06-22T04:24:37;4.03;;;3.63;;
22070;SDS011;11200;51.488;6.668;2023-06-22T04:27:02;4.05;;;3.35;;
22070;SDS011;11200;51.488;6.668;2023-06-22T04:29:29;4.85;;;4.35;;
22070;SDS011;11200;51.488;6.668;2023-06-22T04:31:57;4.20;;;3.80;;
22070;SDS011;11200;51.488;6.668;2023-06-22T10:36:54;6.97;;;6.18;;
22070;SDS011;11200;51.488;6.668;2023-06-22T10:39:19;8.02;;;6.00;;
22070;SDS011;11200;51.488;6.668;2023-06-22T10:41:45;7.57;;;6.30;;
22070;SDS011;11200;51.488;6.668;2023-06-22T10:44:11;7.00;;;6.38;;
22070;SDS011;11200;51.488;6.668;2023-06-22T10:46:37;6.78;;;6.10;;
22070;SDS011;11200;51.488;6.668;2023-06-22T10:49:03;7.18;;;6.47;;
22070;SDS011;11200;51.488;6.668;2023-06-22T10:51:28;6.70;;;6.10;;
22070;SDS011;11200;51.488;6.668;2023-06-22T10:53:54;5.90;;;5.40;;
22070;SDS011;11200;51.488;6.668;2023-06-22T10:56:19;7.00;;;6.30;;
22070;SDS011;11200;51.488;6.668;2023-06-22T10:58:45;6.93;;;6.28;;
22070;SDS011;11200;51.488;6.668;2023-06-22T11:01:11;7.50;;;6.18;;
22070;SDS011;11200;51.488;6.668;2023-06-22T11:03:37;6.32;;;5.72;;
22070;SDS011;11200;51.488;6.668;2023-06-22T11:06:02;6.35;;;5.75;;
22070;SDS011;11200;51.488;6.668;2023-06-22T11:08:28;6.10;;;5.50;;
22070;SDS011;11200;51.488;6.668;2023-06-22T11:10:53;6.53;;;5.85;;
22070;SDS011;11200;51.488;6.668;2023-06-22T11:13:19;6.53;;;6.00;;
22070;SDS011;11200;51.488;6.668;2023-06-22T11:15:45;6.50;;;5.90;;
22070;SDS011;11200;51.488;6.668;2023-06-22T11:18:10;6.85;;;6.25;;
22070;SDS011;11200;51.488;6.668;2023-06-22T11:20:36;6.00;;;5.50;;
22070;SDS011;11200;51.488;6.668;2023-06-22T11:23:06;6.50;;;5.90;;
22070;SDS011;11200;51.488;6.668;2023-06-22T11:25:32;6.00;;;5.50;;
22070;SDS011;11200;51.488;6.668;2023-06-22T11:28:01;6.00;;;5.45;;
22070;SDS011;11200;51.488;6.668;2023-06-22T11:30:28;6.13;;;5.63;;
22070;SDS011;11200;51.488;6.668;2023-06-22T11:32:54;5.97;;;5.45;;
22070;SDS011;11200;51.488;6.668;2023-06-22T11:35:21;6.32;;;5.82;;
22070;SDS011;11200;51.488;6.668;2023-06-22T11:37:47;5.90;;;5.40;;
22070;SDS011;11200;51.488;6.668;2023-06-22T11:40:13;6.30;;;5.72;;
22070;SDS011;11200;51.488;6.668;2023-06-22T11:42:39;6.70;;;6.10;;
22070;SDS011;11200;51.488;6.668;2023-06-22T11:45:05;7.18;;;6.47;;
22070;SDS011;11200;51.488;6.668;2023-06-22T11:47:31;7.07;;;6.47;;
22070;SDS011;11200;51.488;6.668;2023-06-22T11:49:57;7.40;;;6.65;;
22070;SDS011;11200;51.488;6.668;2023-06-22T11:52:22;7.00;;;6.40;;
22070;SDS011;11200;51.488;6.668;2023-06-22T11:54:48;6.38;;;5.80;;
22070;SDS011;11200;51.488;6.668;2023-06-22T11:57:14;6.47;;;5.88;;
22070;SDS011;11200;51.488;6.668;2023-06-22T11:59:39;7.03;;;6.32;;
22070;SDS011;11200;51.488;6.668;2023-06-22T12:02:05;6.90;;;6.30;;
22070;SDS011;11200;51.488;6.668;2023-06-22T12:04:32;6.90;;;6.28;;
22070;SDS011;11200;51.488;6.668;2023-06-22T12:06:58;7.47;;;6.25;;
22070;SDS011;11200;51.488;6.668;2023-06-22T12:09:23;7.07;;;6.38;;
22070;SDS011;11200;51.488;6.668;2023-06-22T12:11:49;6.38;;;5.78;;
22070;SDS011;11200;51.488;6.668;2023-06-22T12:14:15;6.50;;;5.95;;
22070;SDS011;11200;51.488;6.668;2023-06-22T12:16:40;6.60;;;6.00;;
22070;SDS011;11200;51.488;6.668;2023-06-22T12:19:06;6.25;;;5.65;;
22070;SDS011;11200;51.488;6.668;2023-06-22T12:21:32;6.50;;;5.93;;
22070;SDS011;11200;51.488;6.668;2023-06-22T12:23:57;6.82;;;6.22;;
22070;SDS011;11200;51.488;6.668;2023-06-22T12:26:23;6.85;;;6.25;;
22070;SDS011;11200;51.488;6.668;2023-06-22T12:28:48;6.47;;;5.90;;
22070;SDS011;11200;51.488;6.668;2023-06-22T12:31:14;6.32;;;5.82;;
22070;SDS011;11200;51.488;6.668;2023-06-22T12:33:40;6.30;;;5.70;;
22070;SDS011;11200;51.488;6.668;2023-06-22T12:36:05;6.60;;;6.03;;
22070;SDS011;11200;51.488;6.668;2023-06-22T12:38:31;6.80;;;6.10;;
22070;SDS011;11200;51.488;6.668;2023-06-22T12:40:57;6.90;;;6.30;;
22070;SDS011;11200;51.488;6.668;2023-06-22T12:43:22;7.28;;;6.50;;
22070;SDS011;11200;51.488;6.668;2023-06-22T12:45:48;7.05;;;6.43;;
22070;SDS011;11200;51.488;6.668;2023-06-22T12:48:13;7.35;;;6.63;;
22070;SDS011;11200;51.488;6.668;2023-06-22T12:50:39;7.18;;;6.55;;
22070;SDS011;11200;51.488;6.668;2023-06-22T12:53:05;7.72;;;6.93;;
22070;SDS011;11200;51.488;6.668;2023-06-22T12:55:31;7.32;;;6.63;;
22070;SDS011;11200;51.488;6.668;2023-06-22T12:57:57;8.00;;;7.30;;
22070;SDS011;11200;51.488;6.668;2023-06-22T13:00:23;7.22;;;6.63;;
22070;SDS011;11200;51.488;6.668;2023-06-22T13:02:51;7.68;;;6.97;;
22070;SDS011;11200;51.488;6.668;2023-06-22T13:05:23;7.45;;;6.80;;
22070;SDS011;11200;51.488;6.668;2023-06-22T13:07:55;7.45;;;6.85;;
22070;SDS011;11200;51.488;6.668;2023-06-22T13:10:24;7.90;;;7.10;;
22070;SDS011;11200;51.488;6.668;2023-06-22T13:12:52;8.10;;;7.38;;
22070;SDS011;11200;51.488;6.668;2023-06-22T13:15:25;7.65;;;6.95;;
22070;SDS011;11200;51.488;6.668;2023-06-22T13:17:52;7.97;;;7.18;;
22070;SDS011;11200;51.488;6.668;2023-06-22T13:20:18;8.20;;;7.40;;
22070;SDS011;11200;51.488;6.668;2023-06-22T13:22:43;8.98;;;7.78;;
22070;SDS011;11200;51.488;6.668;2023-06-22T13:25:09;8.10;;;7.30;;
22070;SDS011;11200;51.488;6.668;2023-06-22T13:27:37;8.07;;;7.38;;
22070;SDS011;11200;51.488;6.668;2023-06-22T13:30:07;8.23;;;7.43;;
22070;SDS011;11200;51.488;6.668;2023-06-22T13:32:34;7.32;;;6.72;;
22070;SDS011;11200;51.488;6.668;2023-06-22T13:34:59;7.75;;;7.05;;
22070;SDS011;11200;51.488;6.668;2023-06-22T13:37:25;7.70;;;6.90;;
22070;SDS011;11200;51.488;6.668;2023-06-22T13:39:52;8.25;;;7.50;;
22070;SDS011;11200;51.488;6.668;2023-06-22T13:42:18;8.38;;;7.07;;
22070;SDS011;11200;51.488;6.668;2023-06-22T13:44:43;7.82;;;7.13;;
22070;SDS011;11200;51.488;6.668;2023-06-22T13:47:09;7.97;;;7.28;;
22070;SDS011;11200;51.488;6.668;2023-06-22T13:49:35;7.18;;;6.57;;
22070;SDS011;11200;51.488;6.668;2023-06-22T13:52:01;7.75;;;7.05;;
22070;SDS011;11200;51.488;6.668;2023-06-22T13:54:28;7.60;;;6.90;;
22070;SDS011;11200;51.488;6.668;2023-06-22T13:56:54;8.30;;;7.60;;
22070;SDS011;11200;51.488;6.668;2023-06-22T13:59:19;8.20;;;7.50;;
22070;SDS011;11200;51.488;6.668;2023-06-22T14:01:46;8.73;;;7.97;;
22070;SDS011;11200;51.488;6.668;2023-06-22T14:04:11;8.55;;;7.75;;
22070;SDS011;11200;51.488;6.668;2023-06-22T14:06:37;8.48;;;7.68;;
22070;SDS011;11200;51.488;6.668;2023-06-22T14:09:03;7.78;;;7.13;;
22070;SDS011;11200;51.488;6.668;2023-06-22T14:11:29;8.18;;;7.47;;
22070;SDS011;11200;51.488;6.668;2023-06-22T14:13:54;8.77;;;7.97;;
22070;SDS011;11200;51.488;6.668;2023-06-22T14:16:20;8.60;;;7.80;;
22070;SDS011;11200;51.488;6.668;2023-06-22T14:18:46;8.15;;;7.45;;
22070;SDS011;11200;51.488;6.668;2023-06-22T14:21:11;7.38;;;6.75;;
22070;SDS011;11200;51.488;6.668;2023-06-22T14:23:37;8.18;;;7.43;;
22070;SDS011;11200;51.488;6.668;2023-06-22T14:26:03;9.20;;;8.30;;
22070;SDS011;11200;51.488;6.668;2023-06-22T14:28:28;9.75;;;8.85;;
22070;SDS011;11200;51.488;6.668;2023-06-22T14:30:54;9.57;;;8.57;;
22070;SDS011;11200;51.488;6.668;2023-06-22T14:33:21;9.02;;;8.23;;
22070;SDS011;11200;51.488;6.668;2023-06-22T14:35:47;9.18;;;8.27;;
22070;SDS011;11200;51.488;6.668;2023-06-22T14:38:12;8.30;;;7.60;;
22070;SDS011;11200;51.488;6.668;2023-06-22T14:40:38;8.90;;;8.10;;
22070;SDS011;11200;51.488;6.668;2023-06-22T14:43:04;8.63;;;7.88;;
22070;SDS011;11200;51.488;6.668;2023-06-22T14:45:30;8.77;;;7.97;;
22070;SDS011;11200;51.488;6.668;2023-06-22T14:47:55;8.55;;;7.85;;
22070;SDS011;11200;51.488;6.668;2023-06-22T14:50:21;9.27;;;8.38;;
22070;SDS011;11200;51.488;6.668;2023-06-22T14:52:46;9.27;;;8.48;;
22070;SDS011;11200;51.488;6.668;2023-06-22T14:55:12;10.77;;;9.77;;
22070;SDS011;11200;51.488;6.668;2023-06-22T14:57:37;8.45;;;7.75;;
22070;SDS011;11200;51.488;6.668;2023-06-22T15:00:03;9.00;;;8.23;;
22070;SDS011;11200;51.488;6.668;2023-06-22T15:02:31;9.65;;;8.80;;
22070;SDS011;11200;51.488;6.668;2023-06-22T15:04:57;10.40;;;9.50;;
22070;SDS011;11200;51.488;6.668;2023-06-22T15:07:22;11.30;;;10.25;;
22070;SDS011;11200;51.488;6.668;2023-06-22T15:09:48;11.38;;;9.85;;
22070;SDS011;11200;51.488;6.668;2023-06-22T15:12:13;11.90;;;10.80;;
22070;SDS011;11200;51.488;6.668;2023-06-22T15:14:40;10.68;;;9.68;;
22070;SDS011;11200;51.488;6.668;2023-06-22T15:17:08;11.02;;;10.02;;
22070;SDS011;11200;51.488;6.668;2023-06-22T15:19:37;10.90;;;9.80;;
22070;SDS011;11200;51.488;6.668;2023-06-22T15:22:04;12.27;;;10.98;;
22070;SDS011;11200;51.488;6.668;2023-06-22T15:24:31;13.55;;;12.23;;
22070;SDS011;11200;51.488;6.668;2023-06-22T15:26:57;12.50;;;11.30;;
22070;SDS011;11200;51.488;6.668;2023-06-22T15:29:23;12.52;;;11.23;;
22070;SDS011;11200;51.488;6.668;2023-06-22T15:31:48;12.30;;;11.05;;
22070;SDS011;11200;51.488;6.668;2023-06-22T15:34:14;12.20;;;11.05;;
22070;SDS011;11200;51.488;6.668;2023-06-22T15:36:40;12.18;;;11.02;;
22070;SDS011;11200;51.488;6.668;2023-06-22T15:39:05;11.50;;;10.30;;
22070;SDS011;11200;51.488;6.668;2023-06-22T15:41:31;11.15;;;10.07;;
22070;SDS011;11200;51.488;6.668;2023-06-22T15:43:57;12.32;;;11.07;;
22070;SDS011;11200;51.488;6.668;2023-06-22T15:46:23;12.57;;;11.38;;
22070;SDS011;11200;51.488;6.668;2023-06-22T15:48:49;11.98;;;10.73;;
22070;SDS011;11200;51.488;6.668;2023-06-22T15:51:14;11.70;;;10.60;;
22070;SDS011;11200;51.488;6.668;2023-06-22T15:53:40;12.43;;;11.13;;
22070;SDS011;11200;51.488;6.668;2023-06-22T15:56:06;11.50;;;10.30;;
22070;SDS011;11200;51.488;6.668;2023-06-22T15:58:37;12.52;;;11.32;;
22070;SDS011;11200;51.488;6.668;2023-06-22T16:01:06;9.73;;;8.82;;
22070;SDS011;11200;51.488;6.668;2023-06-22T16:03:33;11.18;;;10.07;;
22070;SDS011;11200;51.488;6.668;2023-06-22T16:06:06;10.90;;;9.80;;
22070;SDS011;11200;51.488;6.668;2023-06-22T16:08:32;11.80;;;10.65;;
22070;SDS011;11200;51.488;6.668;2023-06-22T16:10:58;10.15;;;9.15;;
22070;SDS011;11200;51.488;6.668;2023-06-22T16:13:25;10.52;;;9.50;;
22070;SDS011;11200;51.488;6.668;2023-06-22T16:15:50;10.85;;;9.85;;
22070;SDS011;11200;51.488;6.668;2023-06-22T16:18:16;11.50;;;10.40;;
22070;SDS011;11200;51.488;6.668;2023-06-22T16:20:42;11.15;;;9.93;;
22070;SDS011;11200;51.488;6.668;2023-06-22T16:23:08;11.68;;;10.57;;
22070;SDS011;11200;51.488;6.668;2023-06-22T16:25:33;10.45;;;9.45;;
22070;SDS011;11200;51.488;6.668;2023-06-22T16:27:59;11.38;;;10.27;;
22070;SDS011;11200;51.488;6.668;2023-06-22T16:30:25;11.43;;;10.25;;
22070;SDS011;11200;51.488;6.668;2023-06-22T16:32:51;11.25;;;10.05;;
